createdAt,value
2018-09-27T00:02:08.312Z,98.60
2018-09-27T00:04:39.205Z,99.10
2018-09-27T00:07:10.119Z,98.70
2018-09-27T00:09:40.911Z,98.70
2018-09-27T00:12:12.596Z,98.80
2018-09-27T00:14:43.375Z,99.10
2018-09-27T00:17:14.915Z,99.20
2018-09-27T00:19:45.770Z,98.90
2018-09-27T00:22:16.608Z,99.00
2018-09-27T00:24:47.500Z,99.40
2018-09-27T00:27:18.904Z,99.50
2018-09-27T00:29:49.809Z,99.60
2018-09-27T00:32:20.733Z,99.80
2018-09-27T00:34:51.463Z,99.70
2018-09-27T00:37:22.316Z,99.70
2018-09-27T00:39:53.135Z,99.10
2018-09-27T00:42:23.917Z,98.90
2018-09-27T00:44:54.651Z,98.80
2018-09-27T00:47:25.611Z,98.70
2018-09-27T00:49:57.366Z,98.80
2018-09-27T00:52:28.640Z,99.00
2018-09-27T00:54:59.341Z,98.90
2018-09-27T00:57:30.143Z,98.80
2018-09-27T01:00:00.804Z,98.80
2018-09-27T01:02:31.569Z,98.50
2018-09-27T01:05:02.223Z,98.60
2018-09-27T01:07:33.938Z,98.50
2018-09-27T01:10:04.414Z,98.60
2018-09-27T01:12:34.746Z,98.50
2018-09-27T01:15:05.099Z,98.70
2018-09-27T01:17:35.596Z,98.90
2018-09-27T01:20:05.937Z,98.50
2018-09-27T01:22:36.357Z,98.60
2018-09-27T01:25:07.003Z,98.60
2018-09-27T01:27:37.529Z,98.50
2018-09-27T01:30:08.775Z,98.90
2018-09-27T01:32:39.221Z,98.60
2018-09-27T01:35:09.712Z,98.60
2018-09-27T01:37:40.054Z,98.80
2018-09-27T01:40:10.423Z,98.80
2018-09-27T01:42:40.968Z,98.80
2018-09-27T01:45:11.372Z,99.30
2018-09-27T01:47:41.826Z,99.40
2018-09-27T01:50:12.136Z,99.90
2018-09-27T01:52:42.388Z,99.90
2018-09-27T01:55:13.558Z,99.90
2018-09-27T01:57:43.891Z,99.90
2018-09-27T02:00:14.267Z,99.90
2018-09-27T02:02:44.636Z,99.90
2018-09-27T02:05:14.927Z,99.90
2018-09-27T02:07:45.175Z,99.90
2018-09-27T02:10:15.570Z,99.90
2018-09-27T02:12:46.012Z,99.90
2018-09-27T02:15:16.412Z,99.90
2018-09-27T02:17:46.854Z,99.90
2018-09-27T02:20:17.237Z,99.90
2018-09-27T02:22:47.563Z,99.90
2018-09-27T02:25:17.954Z,99.90
2018-09-27T02:27:48.218Z,99.90
2018-09-27T02:30:18.511Z,99.90
2018-09-27T02:32:48.975Z,99.90
2018-09-27T02:35:19.257Z,99.90
2018-09-27T02:37:50.459Z,99.90
2018-09-27T02:40:20.805Z,99.90
2018-09-27T02:42:51.332Z,99.90
2018-09-27T02:45:21.707Z,99.90
2018-09-27T02:47:52.006Z,99.90
2018-09-27T02:50:22.443Z,99.90
2018-09-27T02:52:53.105Z,99.90
2018-09-27T02:55:23.357Z,99.90
2018-09-27T02:57:53.908Z,99.90
2018-09-27T03:00:24.296Z,99.90
2018-09-27T03:02:54.882Z,99.90
2018-09-27T03:05:25.488Z,99.90
2018-09-27T03:07:55.834Z,99.90
2018-09-27T03:10:26.167Z,99.90
2018-09-27T03:12:56.463Z,99.90
2018-09-27T03:15:26.825Z,99.90
2018-09-27T03:17:57.359Z,99.90
2018-09-27T03:20:27.678Z,99.90
2018-09-27T03:22:58.139Z,99.90
2018-09-27T03:25:28.416Z,99.90
2018-09-27T03:27:59.008Z,99.90
2018-09-27T03:30:29.256Z,99.90
2018-09-27T03:32:59.696Z,99.90
2018-09-27T03:35:30.170Z,99.90
2018-09-27T03:38:00.702Z,99.90
2018-09-27T03:40:31.119Z,99.90
2018-09-27T03:43:01.664Z,99.90
2018-09-27T03:45:32.109Z,99.90
2018-09-27T03:48:02.537Z,99.90
2018-09-27T03:50:32.898Z,99.90
2018-09-27T03:53:03.349Z,99.90
2018-09-27T03:55:33.667Z,99.90
2018-09-27T03:58:03.953Z,99.90
2018-09-27T04:00:34.249Z,99.90
2018-09-27T04:03:04.800Z,99.90
2018-09-27T04:05:35.293Z,99.90
2018-09-27T04:08:05.832Z,99.90
2018-09-27T04:10:36.307Z,99.90
2018-09-27T04:13:06.852Z,99.90
2018-09-27T04:15:37.289Z,99.90
2018-09-27T04:18:07.662Z,99.90
2018-09-27T04:20:43.340Z,99.90
2018-09-27T04:23:13.654Z,99.90
2018-09-27T04:25:44.032Z,99.90
2018-09-27T04:28:14.578Z,99.90
2018-09-27T04:30:45.096Z,99.90
2018-09-27T04:33:15.759Z,99.90
2018-09-27T04:35:46.217Z,99.90
2018-09-27T04:38:16.559Z,99.90
2018-09-27T04:40:47.003Z,99.90
2018-09-27T04:43:17.375Z,99.90
2018-09-27T04:45:47.812Z,99.90
2018-09-27T04:48:18.296Z,99.90
2018-09-27T04:50:48.682Z,99.90
2018-09-27T04:53:19.020Z,99.90
2018-09-27T04:55:49.394Z,99.90
2018-09-27T04:58:19.833Z,99.90
2018-09-27T05:00:50.326Z,99.90
2018-09-27T05:03:20.850Z,99.90
2018-09-27T05:05:51.353Z,99.90
2018-09-27T05:08:22.053Z,99.90
2018-09-27T05:10:52.519Z,99.90
2018-09-27T05:13:22.798Z,99.90
2018-09-27T05:15:53.390Z,99.90
2018-09-27T05:18:23.843Z,99.90
2018-09-27T05:20:54.420Z,99.90
2018-09-27T05:23:24.869Z,99.90
2018-09-27T05:25:55.402Z,99.90
2018-09-27T05:28:25.747Z,99.90
2018-09-27T05:30:56.346Z,99.90
2018-09-27T05:33:26.810Z,99.90
2018-09-27T05:35:57.323Z,99.90
2018-09-27T05:38:28.426Z,99.90
2018-09-27T05:40:59.035Z,99.90
2018-09-27T05:43:29.470Z,99.90
2018-09-27T05:46:00.031Z,99.90
2018-09-27T05:48:31.258Z,99.90
2018-09-27T05:51:02.321Z,99.90
2018-09-27T05:53:33.090Z,99.90
2018-09-27T05:56:03.674Z,99.90
2018-09-27T05:58:34.186Z,99.90
2018-09-27T06:01:04.909Z,99.90
2018-09-27T06:03:35.646Z,99.90
2018-09-27T06:06:06.530Z,99.90
2018-09-27T06:08:37.020Z,99.90
2018-09-27T06:11:07.460Z,99.60
2018-09-27T06:13:38.349Z,98.90
2018-09-27T06:16:09.762Z,99.20
2018-09-27T06:18:40.347Z,98.50
2018-09-27T06:21:10.901Z,97.60
2018-09-27T06:23:41.411Z,97.30
2018-09-27T06:26:33.339Z,97.40
2018-09-27T06:29:03.875Z,97.40
2018-09-27T06:31:34.315Z,97.60
2018-09-27T06:34:04.850Z,97.40
2018-09-27T06:36:35.436Z,96.90
2018-09-27T06:39:08.202Z,96.70
2018-09-27T06:41:38.903Z,96.30
2018-09-27T06:44:09.993Z,96.00
2018-09-27T06:46:41.366Z,95.30
2018-09-27T06:49:12.130Z,95.30
2018-09-27T06:51:42.566Z,94.50
2018-09-27T06:54:13.109Z,94.10
2018-09-27T06:56:43.973Z,94.10
2018-09-27T06:59:14.592Z,93.40
2018-09-27T07:01:45.379Z,93.00
2018-09-27T07:04:16.084Z,92.00
2018-09-27T07:06:47.387Z,91.50
2018-09-27T07:09:17.990Z,90.50
2018-09-27T07:11:48.792Z,90.50
2018-09-27T07:14:19.409Z,89.60
2018-09-27T07:16:49.966Z,89.80
2018-09-27T07:19:20.505Z,88.20
2018-09-27T07:21:50.903Z,87.70
2018-09-27T07:24:21.419Z,86.10
2018-09-27T07:26:52.099Z,85.10
2018-09-27T07:29:22.872Z,84.40
2018-09-27T07:31:53.486Z,83.20
2018-09-27T07:34:24.145Z,82.50
2018-09-27T07:36:54.531Z,81.90
2018-09-27T07:39:25.009Z,78.90
2018-09-27T07:41:55.560Z,77.90
2018-09-27T07:44:26.064Z,74.80
2018-09-27T07:46:56.417Z,74.60
2018-09-27T07:49:27.160Z,70.90
2018-09-27T07:51:57.579Z,69.00
2018-09-27T07:54:28.179Z,67.20
2018-09-27T07:56:58.683Z,66.20
2018-09-27T07:59:29.194Z,66.70
2018-09-27T08:01:59.571Z,65.90
2018-09-27T08:04:30.101Z,64.40
2018-09-27T08:07:00.794Z,62.80
2018-09-27T08:09:31.534Z,63.60
2018-09-27T08:12:02.153Z,61.90
2018-09-27T08:14:33.382Z,62.20
2018-09-27T08:17:03.963Z,62.20
2018-09-27T08:19:34.562Z,61.50
2018-09-27T08:22:06.461Z,59.70
2018-09-27T08:24:37.156Z,59.50
2018-09-27T08:27:08.048Z,58.90
2018-09-27T08:29:38.823Z,58.70
2018-09-27T08:32:09.749Z,57.60
2018-09-27T08:34:40.184Z,57.30
2018-09-27T08:37:11.002Z,58.40
2018-09-27T08:39:41.606Z,57.90
2018-09-27T08:42:12.710Z,58.00
2018-09-27T08:44:43.449Z,56.60
2018-09-27T08:47:14.034Z,56.60
2018-09-27T08:49:45.847Z,56.10
2018-09-27T08:52:16.288Z,55.10
2018-09-27T08:54:47.665Z,54.80
2018-09-27T08:57:18.404Z,54.70
2018-09-27T08:59:49.077Z,55.70
2018-09-27T09:02:20.221Z,55.10
2018-09-27T09:04:50.633Z,54.70
2018-09-27T09:07:22.182Z,55.00
2018-09-27T09:09:52.962Z,54.30
2018-09-27T09:12:24.031Z,54.00
2018-09-27T09:14:55.129Z,52.70
2018-09-27T09:17:26.096Z,53.60
2018-09-27T09:19:56.981Z,51.80
2018-09-27T09:22:28.239Z,51.40
2018-09-27T09:24:58.853Z,51.10
2018-09-27T09:27:29.592Z,51.30
2018-09-27T09:30:00.068Z,51.40
2018-09-27T09:32:30.584Z,52.10
2018-09-27T09:35:01.371Z,51.60
2018-09-27T09:37:32.278Z,51.70
2018-09-27T09:40:02.791Z,50.80
2018-09-27T09:42:33.622Z,51.70
2018-09-27T09:45:04.393Z,50.30
2018-09-27T09:47:35.054Z,50.30
2018-09-27T09:50:06.480Z,50.20
2018-09-27T09:52:37.763Z,50.60
2018-09-27T09:55:08.892Z,49.60
2018-09-27T09:57:39.624Z,50.50
2018-09-27T10:00:10.598Z,49.40
2018-09-27T10:02:41.302Z,48.50
2018-09-27T10:05:11.846Z,48.80
2018-09-27T10:07:42.727Z,48.60
2018-09-27T10:10:13.278Z,50.20
2018-09-27T10:12:43.759Z,48.10
2018-09-27T10:15:14.416Z,47.60
2018-09-27T10:17:45.093Z,47.30
2018-09-27T10:20:15.571Z,47.70
2018-09-27T10:22:46.111Z,46.50
2018-09-27T10:25:16.805Z,47.10
2018-09-27T10:27:47.412Z,47.50
2018-09-27T10:30:17.977Z,48.10
2018-09-27T10:32:48.397Z,47.80
2018-09-27T10:35:18.867Z,47.60
2018-09-27T10:37:50.022Z,47.20
2018-09-27T10:40:21.095Z,46.80
2018-09-27T10:42:51.857Z,46.30
2018-09-27T10:45:22.736Z,44.50
2018-09-27T10:47:53.211Z,41.10
2018-09-27T10:50:24.646Z,40.10
2018-09-27T10:52:55.853Z,40.70
2018-09-27T10:55:26.552Z,41.70
2018-09-27T10:57:57.486Z,40.60
2018-09-27T11:00:27.947Z,40.10
2018-09-27T11:02:58.637Z,39.40
2018-09-27T11:05:29.084Z,40.50
2018-09-27T11:07:59.748Z,40.40
2018-09-27T11:10:30.464Z,37.90
2018-09-27T11:13:01.136Z,39.70
2018-09-27T11:15:31.845Z,39.00
2018-09-27T11:18:03.604Z,38.00
2018-09-27T11:20:34.152Z,37.50
2018-09-27T11:23:05.409Z,35.70
2018-09-27T11:25:37.389Z,35.00
2018-09-27T11:28:08.573Z,34.60
2018-09-27T11:30:39.370Z,36.80
2018-09-27T11:33:10.415Z,33.00
2018-09-27T11:35:40.883Z,34.60
2018-09-27T11:38:11.591Z,33.90
2018-09-27T11:40:42.096Z,33.80
2018-09-27T11:43:12.847Z,34.40
2018-09-27T11:45:43.541Z,34.20
2018-09-27T11:48:14.079Z,34.00
2018-09-27T11:50:44.812Z,32.50
2018-09-27T11:53:16.265Z,33.80
2018-09-27T11:55:47.676Z,34.50
2018-09-27T11:58:18.384Z,31.40
2018-09-27T12:00:49.654Z,31.40
2018-09-27T12:03:20.372Z,28.80
2018-09-27T12:05:52.151Z,27.70
2018-09-27T12:08:23.201Z,27.70
2018-09-27T12:10:55.344Z,27.40
2018-09-27T12:13:26.748Z,28.00
2018-09-27T12:15:58.141Z,27.30
2018-09-27T12:18:29.248Z,26.90
2018-09-27T12:21:00.098Z,28.00
2018-09-27T12:23:32.680Z,28.70
2018-09-27T12:26:04.679Z,28.80
2018-09-27T12:28:42.303Z,25.80
2018-09-27T12:31:16.918Z,24.50
2018-09-27T12:34:02.655Z,25.90
2018-09-27T12:36:35.796Z,26.10
2018-09-27T12:39:11.025Z,25.70
2018-09-27T12:41:44.179Z,27.30
2018-09-27T12:44:15.057Z,27.70
2018-09-27T12:46:46.539Z,26.70
2018-09-27T12:49:17.282Z,26.40
2018-09-27T12:51:49.920Z,25.40
2018-09-27T12:54:20.703Z,24.80
2018-09-27T12:56:51.618Z,24.80
2018-09-27T12:59:23.437Z,25.10
2018-09-27T13:01:55.575Z,23.70
2018-09-27T13:04:29.004Z,24.50
2018-09-27T13:07:01.305Z,24.30
2018-09-27T13:09:33.467Z,24.50
2018-09-27T13:12:05.846Z,24.80
2018-09-27T13:14:36.605Z,24.10
2018-09-27T13:17:07.311Z,23.70
2018-09-27T13:19:38.497Z,24.60
2018-09-27T13:22:09.365Z,23.50
2018-09-27T13:24:39.952Z,24.20
2018-09-27T13:27:10.631Z,24.60
2018-09-27T13:29:41.617Z,24.90
2018-09-27T13:32:15.576Z,25.30
2018-09-27T13:34:47.230Z,25.00
2018-09-27T13:37:19.590Z,25.00
2018-09-27T13:39:50.394Z,25.30
2018-09-27T13:42:21.332Z,24.20
2018-09-27T13:44:52.801Z,23.80
2018-09-27T13:47:24.352Z,23.80
2018-09-27T13:49:58.827Z,23.90
2018-09-27T13:52:29.944Z,24.10
2018-09-27T13:55:02.580Z,24.50
2018-09-27T13:57:34.090Z,24.80
2018-09-27T14:00:04.779Z,24.90
2018-09-27T14:02:35.837Z,25.30
2018-09-27T14:05:07.157Z,25.00
2018-09-27T14:07:37.902Z,24.60
2018-09-27T14:10:08.804Z,25.10
2018-09-27T14:12:39.659Z,25.20
2018-09-27T14:15:10.852Z,25.90
2018-09-27T14:17:41.626Z,26.00
2018-09-27T14:20:12.276Z,25.70
2018-09-27T14:22:44.128Z,24.60
2018-09-27T14:25:16.399Z,25.50
2018-09-27T14:27:48.231Z,26.00
2018-09-27T14:30:21.383Z,26.70
2018-09-27T14:32:55.334Z,25.50
2018-09-27T14:35:28.056Z,26.20
2018-09-27T14:38:00.403Z,26.50
2018-09-27T14:40:32.026Z,27.20
2018-09-27T14:43:04.425Z,26.80
2018-09-27T14:45:36.166Z,26.30
2018-09-27T14:48:09.095Z,26.90
2018-09-27T14:50:41.872Z,26.70
2018-09-27T14:53:13.633Z,26.80
2018-09-27T14:55:50.061Z,26.50
2018-09-27T14:58:21.410Z,26.00
2018-09-27T15:00:59.473Z,26.70
2018-09-27T15:03:33.018Z,26.50
2018-09-27T15:06:04.994Z,27.00
2018-09-27T15:08:35.737Z,26.70
2018-09-27T15:11:06.549Z,27.70
2018-09-27T15:13:37.242Z,26.40
2018-09-27T15:16:07.784Z,27.70
2018-09-27T15:18:39.151Z,27.50
2018-09-27T15:21:09.825Z,26.10
2018-09-27T15:23:40.439Z,26.50
2018-09-27T15:26:11.069Z,26.50
2018-09-27T15:28:41.711Z,26.90
2018-09-27T15:31:12.803Z,27.60
2018-09-27T15:33:43.771Z,27.10
2018-09-27T15:36:15.015Z,27.50
2018-09-27T15:38:46.314Z,27.60
2018-09-27T15:41:16.883Z,27.80
2018-09-27T15:43:47.763Z,28.10
2018-09-27T15:46:18.609Z,27.20
2018-09-27T15:48:49.336Z,27.60
2018-09-27T15:51:20.150Z,26.40
2018-09-27T15:53:50.936Z,25.80
2018-09-27T15:56:21.458Z,26.40
2018-09-27T15:58:52.952Z,26.50
2018-09-27T16:01:23.513Z,26.80
2018-09-27T16:03:54.078Z,26.80
2018-09-27T16:06:24.747Z,27.00
2018-09-27T16:08:55.462Z,27.10
2018-09-27T16:11:25.923Z,27.80
2018-09-27T16:13:56.619Z,27.50
2018-09-27T16:16:27.105Z,27.90
2018-09-27T16:18:57.799Z,28.60
2018-09-27T16:21:28.453Z,29.00
2018-09-27T16:23:59.156Z,29.10
2018-09-27T16:26:29.866Z,29.70
2018-09-27T16:29:00.324Z,29.80
2018-09-27T16:31:31.092Z,30.00
2018-09-27T16:34:01.491Z,30.10
2018-09-27T16:36:33.036Z,29.90
2018-09-27T16:39:05.692Z,29.60
2018-09-27T16:41:36.532Z,29.60
2018-09-27T16:44:07.610Z,29.00
2018-09-27T16:46:38.622Z,29.30
2018-09-27T16:49:09.510Z,28.60
2018-09-27T16:51:40.720Z,28.60
2018-09-27T16:54:11.508Z,28.90
2018-09-27T16:56:42.201Z,29.00
2018-09-27T16:59:13.803Z,29.80
2018-09-27T17:01:44.875Z,29.70
2018-09-27T17:04:16.834Z,30.00
2018-09-27T17:06:47.543Z,30.70
2018-09-27T17:09:18.702Z,31.10
2018-09-27T17:11:49.553Z,31.10
2018-09-27T17:14:20.631Z,31.50
2018-09-27T17:16:51.519Z,32.30
2018-09-27T17:19:23.266Z,32.90
2018-09-27T17:21:54.919Z,33.40
2018-09-27T17:24:25.892Z,34.10
2018-09-27T17:26:57.126Z,35.60
2018-09-27T17:29:28.562Z,37.30
2018-09-27T17:31:59.408Z,38.00
2018-09-27T17:34:30.241Z,38.70
2018-09-27T17:37:01.510Z,40.00
2018-09-27T17:39:32.504Z,40.70
2018-09-27T17:42:03.832Z,42.10
2018-09-27T17:44:34.486Z,42.60
2018-09-27T17:47:06.062Z,42.20
2018-09-27T17:49:38.798Z,42.20
2018-09-27T17:52:11.281Z,42.70
2018-09-27T17:54:42.925Z,44.20
2018-09-27T17:57:14.732Z,46.10
2018-09-27T17:59:46.607Z,46.40
2018-09-27T18:02:18.332Z,47.30
2018-09-27T18:04:49.318Z,48.20
2018-09-27T18:07:20.411Z,48.90
2018-09-27T18:09:51.505Z,49.60
2018-09-27T18:12:22.358Z,51.30
2018-09-27T18:14:53.465Z,50.70
2018-09-27T18:17:25.479Z,52.50
2018-09-27T18:19:58.010Z,52.30
2018-09-27T18:22:30.911Z,54.50
2018-09-27T18:25:01.826Z,54.00
2018-09-27T18:27:34.748Z,54.70
2018-09-27T18:30:05.655Z,55.40
2018-09-27T18:32:36.656Z,55.40
2018-09-27T18:35:07.436Z,56.20
2018-09-27T18:37:40.653Z,56.50
2018-09-27T18:40:12.132Z,56.80
2018-09-27T18:42:43.059Z,58.00
2018-09-27T18:45:16.004Z,58.00
2018-09-27T18:47:47.553Z,58.10
2018-09-27T18:50:19.063Z,58.10
2018-09-27T18:52:50.525Z,58.00
2018-09-27T18:55:21.550Z,58.40
2018-09-27T18:57:52.380Z,58.70
2018-09-27T19:00:23.768Z,59.40
2018-09-27T19:02:54.618Z,59.00
2018-09-27T19:05:25.778Z,59.40
2018-09-27T19:07:56.539Z,61.20
2018-09-27T19:10:27.309Z,60.40
2018-09-27T19:12:57.939Z,61.70
2018-09-27T19:15:28.804Z,61.70
2018-09-27T19:17:59.589Z,60.00
2018-09-27T19:20:30.236Z,60.70
2018-09-27T19:23:01.351Z,61.30
2018-09-27T19:25:33.549Z,59.80
2018-09-27T19:28:04.615Z,59.20
2018-09-27T19:30:36.717Z,58.10
2018-09-27T19:33:07.661Z,59.10
2018-09-27T19:35:39.107Z,59.90
2018-09-27T19:38:10.172Z,59.10
2018-09-27T19:40:41.099Z,60.80
2018-09-27T19:43:12.221Z,62.80
2018-09-27T19:45:43.428Z,62.40
2018-09-27T19:48:14.847Z,63.50
2018-09-27T19:50:46.408Z,64.30
2018-09-27T19:53:17.636Z,64.80
2018-09-27T19:55:49.718Z,63.10
2018-09-27T19:58:20.689Z,66.10
2018-09-27T20:00:51.663Z,66.80
2018-09-27T20:03:22.558Z,67.00
2018-09-27T20:05:53.587Z,66.70
2018-09-27T20:08:26.382Z,66.80
2018-09-27T20:11:00.865Z,66.90
2018-09-27T20:13:37.708Z,65.90
2018-09-27T20:16:08.966Z,66.70
2018-09-27T20:18:40.924Z,66.40
2018-09-27T20:21:11.701Z,66.60
2018-09-27T20:23:42.360Z,68.10
2018-09-27T20:26:14.848Z,68.50
2018-09-27T20:28:45.728Z,66.70
2018-09-27T20:31:17.657Z,65.50
2018-09-27T20:33:49.378Z,67.90
2018-09-27T20:36:20.152Z,68.20
2018-09-27T20:38:50.852Z,70.20
2018-09-27T20:41:21.546Z,67.70
2018-09-27T20:43:52.371Z,67.90
2018-09-27T20:46:23.232Z,67.60
2018-09-27T20:48:53.891Z,66.10
2018-09-27T20:51:24.712Z,67.30
2018-09-27T20:53:56.826Z,66.20
2018-09-27T20:56:27.550Z,68.00
2018-09-27T20:58:58.139Z,67.30
2018-09-27T21:01:28.922Z,68.80
2018-09-27T21:03:59.524Z,67.80
2018-09-27T21:06:30.042Z,69.80
2018-09-27T21:09:00.608Z,69.80
2018-09-27T21:11:31.232Z,68.60
2018-09-27T21:14:01.940Z,69.60
2018-09-27T21:16:32.554Z,69.50
2018-09-27T21:19:03.454Z,70.20
2018-09-27T21:21:34.059Z,69.30
2018-09-27T21:24:04.950Z,69.00
2018-09-27T21:26:35.775Z,66.70
2018-09-27T21:29:06.455Z,66.60
2018-09-27T21:31:38.160Z,66.80
2018-09-27T21:34:08.949Z,68.00
2018-09-27T21:36:41.389Z,69.40
2018-09-27T21:39:11.978Z,69.30
2018-09-27T21:41:42.558Z,68.40
2018-09-27T21:44:13.087Z,69.60
2018-09-27T21:46:43.694Z,69.30
2018-09-27T21:49:14.401Z,69.80
2018-09-27T21:51:45.071Z,69.00
2018-09-27T21:54:15.569Z,69.20
2018-09-27T21:56:46.219Z,69.00
2018-09-27T21:59:16.955Z,68.30
2018-09-27T22:01:48.738Z,68.30
2018-09-27T22:04:19.181Z,67.50
2018-09-27T22:06:50.773Z,68.00
2018-09-27T22:09:21.455Z,68.30
2018-09-27T22:11:52.048Z,68.30
2018-09-27T22:14:22.504Z,71.70
2018-09-27T22:16:53.012Z,73.30
2018-09-27T22:19:23.611Z,76.40
2018-09-27T22:21:54.055Z,75.00
2018-09-27T22:24:25.098Z,74.80
2018-09-27T22:26:55.640Z,75.30
2018-09-27T22:29:26.185Z,77.60
2018-09-27T22:31:56.723Z,77.70
2018-09-27T22:34:27.442Z,73.80
2018-09-27T22:36:57.977Z,74.30
2018-09-27T22:39:28.693Z,77.70
2018-09-27T22:41:59.291Z,77.60
2018-09-27T22:44:29.928Z,77.20
2018-09-27T22:47:00.482Z,77.00
2018-09-27T22:49:31.146Z,78.00
2018-09-27T22:52:01.730Z,77.70
2018-09-27T22:54:32.736Z,77.50
2018-09-27T22:57:03.291Z,77.80
2018-09-27T22:59:35.963Z,78.20
2018-09-27T23:02:06.505Z,79.50
2018-09-27T23:04:37.093Z,80.30
2018-09-27T23:07:07.784Z,79.30
2018-09-27T23:09:38.319Z,80.30
2018-09-27T23:12:08.904Z,80.00
2018-09-27T23:14:39.687Z,79.60
2018-09-27T23:17:10.406Z,80.00
2018-09-27T23:19:40.850Z,80.20
2018-09-27T23:22:11.537Z,81.80
2018-09-27T23:24:42.136Z,83.00
2018-09-27T23:27:12.444Z,84.00
2018-09-27T23:29:42.951Z,84.30
2018-09-27T23:32:13.523Z,80.00
2018-09-27T23:34:44.109Z,78.60
2018-09-27T23:37:14.611Z,77.50
2018-09-27T23:39:45.068Z,76.80
2018-09-27T23:42:15.576Z,76.80
2018-09-27T23:44:46.200Z,79.00
2018-09-27T23:47:16.622Z,77.40
2018-09-27T23:49:47.119Z,82.00
2018-09-27T23:52:17.667Z,85.10
2018-09-27T23:54:48.187Z,80.10
2018-09-27T23:57:18.664Z,81.30
2018-09-27T23:59:49.313Z,86.90
